sensor_id;sensor_type;location;lat;lon;timestamp;temperature;humidity
29345;DHT22;16339;48.748;2.222;2024-03-08T00:01:48;11.50;99.90
29345;DHT22;16339;48.748;2.222;2024-03-08T00:04:20;11.50;99.90
29345;DHT22;16339;48.748;2.222;2024-03-08T00:06:49;11.40;99.90
29345;DHT22;16339;48.748;2.222;2024-03-08T00:09:18;11.40;99.90
29345;DHT22;16339;48.748;2.222;2024-03-08T00:11:47;11.40;99.90
29345;DHT22;16339;48.748;2.222;2024-03-08T00:14:18;11.50;99.90
29345;DHT22;16339;48.748;2.222;2024-03-08T00:16:47;11.50;99.90
29345;DHT22;16339;48.748;2.222;2024-03-08T00:19:21;11.40;99.90
29345;DHT22;16339;48.748;2.222;2024-03-08T00:21:49;11.40;99.90
29345;DHT22;16339;48.748;2.222;2024-03-08T00:24:18;11.40;99.90
29345;DHT22;16339;48.748;2.222;2024-03-08T00:26:49;11.40;99.90
29345;DHT22;16339;48.748;2.222;2024-03-08T00:29:19;11.40;99.90
29345;DHT22;16339;48.748;2.222;2024-03-08T00:31:48;11.30;99.90
29345;DHT22;16339;48.748;2.222;2024-03-08T00:34:16;11.30;99.90
29345;DHT22;16339;48.748;2.222;2024-03-08T00:36:48;11.30;99.90
29345;DHT22;16339;48.748;2.222;2024-03-08T00:39:17;11.20;99.90
29345;DHT22;16339;48.748;2.222;2024-03-08T00:41:49;11.20;99.90
29345;DHT22;16339;48.748;2.222;2024-03-08T00:44:18;11.20;99.90
29345;DHT22;16339;48.748;2.222;2024-03-08T00:46:47;11.20;99.90
29345;DHT22;16339;48.748;2.222;2024-03-08T00:49:16;11.20;99.90
29345;DHT22;16339;48.748;2.222;2024-03-08T00:51:47;11.20;99.90
29345;DHT22;16339;48.748;2.222;2024-03-08T00:54:15;11.10;99.90
29345;DHT22;16339;48.748;2.222;2024-03-08T00:56:44;11.20;99.90
29345;DHT22;16339;48.748;2.222;2024-03-08T00:59:13;11.10;99.90
29345;DHT22;16339;48.748;2.222;2024-03-08T01:01:42;11.20;99.90
29345;DHT22;16339;48.748;2.222;2024-03-08T01:04:11;11.10;99.90
29345;DHT22;16339;48.748;2.222;2024-03-08T01:06:40;11.20;99.90
29345;DHT22;16339;48.748;2.222;2024-03-08T01:09:14;11.20;99.90
29345;DHT22;16339;48.748;2.222;2024-03-08T01:11:43;11.10;99.90
29345;DHT22;16339;48.748;2.222;2024-03-08T01:14:13;11.20;99.90
29345;DHT22;16339;48.748;2.222;2024-03-08T01:16:41;11.20;99.90
29345;DHT22;16339;48.748;2.222;2024-03-08T01:19:10;11.10;99.90
29345;DHT22;16339;48.748;2.222;2024-03-08T01:21:39;11.10;99.90
29345;DHT22;16339;48.748;2.222;2024-03-08T01:24:09;11.10;99.90
29345;DHT22;16339;48.748;2.222;2024-03-08T01:26:40;11.10;99.90
29345;DHT22;16339;48.748;2.222;2024-03-08T01:29:09;11.10;99.90
29345;DHT22;16339;48.748;2.222;2024-03-08T01:31:38;11.10;99.90
29345;DHT22;16339;48.748;2.222;2024-03-08T01:34:07;11.10;99.90
29345;DHT22;16339;48.748;2.222;2024-03-08T01:36:36;11.00;99.90
29345;DHT22;16339;48.748;2.222;2024-03-08T01:39:06;11.00;99.90
29345;DHT22;16339;48.748;2.222;2024-03-08T01:41:35;11.00;99.90
29345;DHT22;16339;48.748;2.222;2024-03-08T01:44:04;11.00;99.90
29345;DHT22;16339;48.748;2.222;2024-03-08T01:46:33;11.00;99.90
29345;DHT22;16339;48.748;2.222;2024-03-08T01:49:03;11.00;99.90
29345;DHT22;16339;48.748;2.222;2024-03-08T01:51:32;11.00;99.90
29345;DHT22;16339;48.748;2.222;2024-03-08T01:54:03;11.00;99.90
29345;DHT22;16339;48.748;2.222;2024-03-08T01:56:32;11.00;99.90
29345;DHT22;16339;48.748;2.222;2024-03-08T01:59:04;11.00;99.90
29345;DHT22;16339;48.748;2.222;2024-03-08T02:01:34;10.90;99.90
29345;DHT22;16339;48.748;2.222;2024-03-08T02:04:03;10.90;99.90
29345;DHT22;16339;48.748;2.222;2024-03-08T02:06:34;10.90;99.90
29345;DHT22;16339;48.748;2.222;2024-03-08T02:09:03;10.90;99.90
29345;DHT22;16339;48.748;2.222;2024-03-08T02:11:34;10.90;99.90
29345;DHT22;16339;48.748;2.222;2024-03-08T02:14:05;10.90;99.90
29345;DHT22;16339;48.748;2.222;2024-03-08T02:16:35;10.80;99.90
29345;DHT22;16339;48.748;2.222;2024-03-08T02:19:06;10.80;99.90
29345;DHT22;16339;48.748;2.222;2024-03-08T02:21:38;10.70;99.90
29345;DHT22;16339;48.748;2.222;2024-03-08T02:24:07;10.70;99.90
29345;DHT22;16339;48.748;2.222;2024-03-08T02:26:36;10.70;99.90
29345;DHT22;16339;48.748;2.222;2024-03-08T02:29:05;10.80;99.90
29345;DHT22;16339;48.748;2.222;2024-03-08T02:31:34;10.70;99.90
29345;DHT22;16339;48.748;2.222;2024-03-08T02:34:05;10.70;99.90
29345;DHT22;16339;48.748;2.222;2024-03-08T02:36:33;10.70;99.90
29345;DHT22;16339;48.748;2.222;2024-03-08T02:39:05;10.70;99.90
29345;DHT22;16339;48.748;2.222;2024-03-08T02:41:36;10.70;99.90
29345;DHT22;16339;48.748;2.222;2024-03-08T02:44:04;10.70;99.90
29345;DHT22;16339;48.748;2.222;2024-03-08T02:46:33;10.70;99.90
29345;DHT22;16339;48.748;2.222;2024-03-08T02:49:02;10.70;99.90
29345;DHT22;16339;48.748;2.222;2024-03-08T02:51:32;10.70;99.90
29345;DHT22;16339;48.748;2.222;2024-03-08T02:54:01;10.60;99.90
29345;DHT22;16339;48.748;2.222;2024-03-08T02:56:32;10.60;99.90
29345;DHT22;16339;48.748;2.222;2024-03-08T02:59:01;10.60;99.90
29345;DHT22;16339;48.748;2.222;2024-03-08T03:01:30;10.60;99.90
29345;DHT22;16339;48.748;2.222;2024-03-08T03:03:59;10.60;99.90
29345;DHT22;16339;48.748;2.222;2024-03-08T03:06:28;10.60;99.90
29345;DHT22;16339;48.748;2.222;2024-03-08T03:08:57;10.60;99.90
29345;DHT22;16339;48.748;2.222;2024-03-08T03:11:26;10.60;99.90
29345;DHT22;16339;48.748;2.222;2024-03-08T03:13:57;10.60;99.90
29345;DHT22;16339;48.748;2.222;2024-03-08T03:16:25;10.60;99.90
29345;DHT22;16339;48.748;2.222;2024-03-08T03:18:54;10.60;99.90
29345;DHT22;16339;48.748;2.222;2024-03-08T03:21:24;10.50;99.90
29345;DHT22;16339;48.748;2.222;2024-03-08T03:23:53;10.50;99.90
29345;DHT22;16339;48.748;2.222;2024-03-08T03:26:22;10.50;99.90
29345;DHT22;16339;48.748;2.222;2024-03-08T03:28:51;10.50;99.90
29345;DHT22;16339;48.748;2.222;2024-03-08T03:31:22;10.50;99.90
29345;DHT22;16339;48.748;2.222;2024-03-08T03:33:51;10.50;99.90
29345;DHT22;16339;48.748;2.222;2024-03-08T03:36:20;10.50;99.90
29345;DHT22;16339;48.748;2.222;2024-03-08T03:38:50;10.50;99.90
29345;DHT22;16339;48.748;2.222;2024-03-08T03:41:30;10.40;99.90
29345;DHT22;16339;48.748;2.222;2024-03-08T03:44:02;10.50;99.90
29345;DHT22;16339;48.748;2.222;2024-03-08T03:46:34;10.40;99.90
29345;DHT22;16339;48.748;2.222;2024-03-08T03:49:02;10.40;99.90
29345;DHT22;16339;48.748;2.222;2024-03-08T03:51:33;10.40;99.90
29345;DHT22;16339;48.748;2.222;2024-03-08T03:54:02;10.40;99.90
29345;DHT22;16339;48.748;2.222;2024-03-08T03:56:31;10.40;99.90
29345;DHT22;16339;48.748;2.222;2024-03-08T03:59:00;10.40;99.90
29345;DHT22;16339;48.748;2.222;2024-03-08T04:01:29;10.40;99.90
29345;DHT22;16339;48.748;2.222;2024-03-08T04:04:00;10.40;99.90
29345;DHT22;16339;48.748;2.222;2024-03-08T04:06:30;10.30;99.90
29345;DHT22;16339;48.748;2.222;2024-03-08T04:09:00;10.30;99.90
29345;DHT22;16339;48.748;2.222;2024-03-08T04:11:29;10.30;99.90
29345;DHT22;16339;48.748;2.222;2024-03-08T04:13:57;10.30;99.90
29345;DHT22;16339;48.748;2.222;2024-03-08T04:16:26;10.30;99.90
29345;DHT22;16339;48.748;2.222;2024-03-08T04:18:55;10.30;99.90
29345;DHT22;16339;48.748;2.222;2024-03-08T04:21:26;10.20;99.90
29345;DHT22;16339;48.748;2.222;2024-03-08T04:23:55;10.20;99.90
29345;DHT22;16339;48.748;2.222;2024-03-08T04:26:23;10.20;99.90
29345;DHT22;16339;48.748;2.222;2024-03-08T04:28:52;10.20;99.90
29345;DHT22;16339;48.748;2.222;2024-03-08T04:31:21;10.20;99.90
29345;DHT22;16339;48.748;2.222;2024-03-08T04:33:52;10.20;99.90
29345;DHT22;16339;48.748;2.222;2024-03-08T04:36:21;10.20;99.90
29345;DHT22;16339;48.748;2.222;2024-03-08T04:38:53;10.10;99.90
29345;DHT22;16339;48.748;2.222;2024-03-08T04:41:21;10.10;99.90
29345;DHT22;16339;48.748;2.222;2024-03-08T04:43:50;10.10;99.90
29345;DHT22;16339;48.748;2.222;2024-03-08T04:46:19;10.10;99.90
29345;DHT22;16339;48.748;2.222;2024-03-08T04:48:48;10.10;99.90
29345;DHT22;16339;48.748;2.222;2024-03-08T04:51:16;10.00;99.90
29345;DHT22;16339;48.748;2.222;2024-03-08T04:53:45;10.10;99.90
29345;DHT22;16339;48.748;2.222;2024-03-08T04:56:16;10.10;99.90
29345;DHT22;16339;48.748;2.222;2024-03-08T04:58:45;10.10;99.90
29345;DHT22;16339;48.748;2.222;2024-03-08T05:01:15;10.10;99.90
29345;DHT22;16339;48.748;2.222;2024-03-08T05:03:43;10.10;99.90
29345;DHT22;16339;48.748;2.222;2024-03-08T05:06:15;10.00;99.90
29345;DHT22;16339;48.748;2.222;2024-03-08T05:08:46;10.10;99.90
29345;DHT22;16339;48.748;2.222;2024-03-08T05:11:17;10.10;99.90
29345;DHT22;16339;48.748;2.222;2024-03-08T05:13:48;10.00;99.90
29345;DHT22;16339;48.748;2.222;2024-03-08T05:16:17;10.00;99.90
29345;DHT22;16339;48.748;2.222;2024-03-08T05:18:49;10.00;99.90
29345;DHT22;16339;48.748;2.222;2024-03-08T05:21:18;10.00;99.90
29345;DHT22;16339;48.748;2.222;2024-03-08T05:23:47;10.00;99.90
29345;DHT22;16339;48.748;2.222;2024-03-08T05:26:18;10.00;99.90
29345;DHT22;16339;48.748;2.222;2024-03-08T05:28:48;9.90;99.90
29345;DHT22;16339;48.748;2.222;2024-03-08T05:31:19;9.90;99.90
29345;DHT22;16339;48.748;2.222;2024-03-08T05:33:54;9.90;99.90
29345;DHT22;16339;48.748;2.222;2024-03-08T05:36:25;9.90;99.90
29345;DHT22;16339;48.748;2.222;2024-03-08T05:38:54;10.00;99.90
29345;DHT22;16339;48.748;2.222;2024-03-08T05:41:25;9.90;99.90
29345;DHT22;16339;48.748;2.222;2024-03-08T05:43:54;9.90;99.90
29345;DHT22;16339;48.748;2.222;2024-03-08T05:46:23;9.90;99.90
29345;DHT22;16339;48.748;2.222;2024-03-08T05:48:52;9.90;99.90
29345;DHT22;16339;48.748;2.222;2024-03-08T05:51:23;9.90;99.90
29345;DHT22;16339;48.748;2.222;2024-03-08T05:53:57;9.90;99.90
29345;DHT22;16339;48.748;2.222;2024-03-08T05:56:29;9.80;99.90
29345;DHT22;16339;48.748;2.222;2024-03-08T05:58:58;9.80;99.90
29345;DHT22;16339;48.748;2.222;2024-03-08T06:01:27;9.70;99.90
29345;DHT22;16339;48.748;2.222;2024-03-08T06:03:57;9.70;99.90
29345;DHT22;16339;48.748;2.222;2024-03-08T06:06:26;9.70;99.90
29345;DHT22;16339;48.748;2.222;2024-03-08T06:08:54;9.60;99.90
29345;DHT22;16339;48.748;2.222;2024-03-08T06:11:25;9.60;99.90
29345;DHT22;16339;48.748;2.222;2024-03-08T06:13:58;9.60;99.90
29345;DHT22;16339;48.748;2.222;2024-03-08T06:16:28;9.60;99.90
29345;DHT22;16339;48.748;2.222;2024-03-08T06:18:57;9.60;99.90
29345;DHT22;16339;48.748;2.222;2024-03-08T06:21:27;9.60;99.90
29345;DHT22;16339;48.748;2.222;2024-03-08T06:23:57;9.50;99.90
29345;DHT22;16339;48.748;2.222;2024-03-08T06:26:29;9.60;99.90
29345;DHT22;16339;48.748;2.222;2024-03-08T06:29:01;9.60;99.90
29345;DHT22;16339;48.748;2.222;2024-03-08T06:31:32;9.60;99.90
29345;DHT22;16339;48.748;2.222;2024-03-08T06:34:04;9.60;99.90
29345;DHT22;16339;48.748;2.222;2024-03-08T06:36:35;9.60;99.90
29345;DHT22;16339;48.748;2.222;2024-03-08T06:39:04;9.70;99.90
29345;DHT22;16339;48.748;2.222;2024-03-08T06:41:35;9.70;99.90
29345;DHT22;16339;48.748;2.222;2024-03-08T06:44:10;9.70;99.90
29345;DHT22;16339;48.748;2.222;2024-03-08T06:46:39;9.70;99.90
29345;DHT22;16339;48.748;2.222;2024-03-08T06:49:08;9.70;99.90
29345;DHT22;16339;48.748;2.222;2024-03-08T06:51:40;9.70;99.90
29345;DHT22;16339;48.748;2.222;2024-03-08T06:54:13;9.70;99.90
29345;DHT22;16339;48.748;2.222;2024-03-08T06:56:44;9.70;99.90
29345;DHT22;16339;48.748;2.222;2024-03-08T06:59:16;9.70;99.90
29345;DHT22;16339;48.748;2.222;2024-03-08T07:01:44;9.70;99.90
29345;DHT22;16339;48.748;2.222;2024-03-08T07:04:14;9.80;99.90
29345;DHT22;16339;48.748;2.222;2024-03-08T07:06:45;9.80;99.90
29345;DHT22;16339;48.748;2.222;2024-03-08T07:09:16;9.80;99.90
29345;DHT22;16339;48.748;2.222;2024-03-08T07:11:48;9.90;99.90
29345;DHT22;16339;48.748;2.222;2024-03-08T07:14:23;9.90;99.90
29345;DHT22;16339;48.748;2.222;2024-03-08T07:16:57;10.00;99.90
29345;DHT22;16339;48.748;2.222;2024-03-08T07:19:26;10.00;99.90
29345;DHT22;16339;48.748;2.222;2024-03-08T07:21:55;10.00;99.90
29345;DHT22;16339;48.748;2.222;2024-03-08T07:24:24;10.10;99.90
29345;DHT22;16339;48.748;2.222;2024-03-08T07:27:06;10.20;99.90
29345;DHT22;16339;48.748;2.222;2024-03-08T07:29:35;10.20;99.90
29345;DHT22;16339;48.748;2.222;2024-03-08T07:32:04;10.30;99.90
29345;DHT22;16339;48.748;2.222;2024-03-08T07:34:45;10.40;99.90
29345;DHT22;16339;48.748;2.222;2024-03-08T07:37:14;10.40;99.90
29345;DHT22;16339;48.748;2.222;2024-03-08T07:39:43;10.50;99.90
29345;DHT22;16339;48.748;2.222;2024-03-08T07:42:11;10.50;99.90
29345;DHT22;16339;48.748;2.222;2024-03-08T07:44:43;10.60;99.90
29345;DHT22;16339;48.748;2.222;2024-03-08T07:47:16;10.60;99.90
29345;DHT22;16339;48.748;2.222;2024-03-08T07:49:47;10.60;99.90
29345;DHT22;16339;48.748;2.222;2024-03-08T07:52:19;10.50;99.90
29345;DHT22;16339;48.748;2.222;2024-03-08T07:54:49;10.60;99.90
29345;DHT22;16339;48.748;2.222;2024-03-08T07:57:19;10.50;99.90
29345;DHT22;16339;48.748;2.222;2024-03-08T07:59:50;10.50;99.90
29345;DHT22;16339;48.748;2.222;2024-03-08T08:02:19;10.50;99.90
29345;DHT22;16339;48.748;2.222;2024-03-08T08:04:49;10.50;99.90
29345;DHT22;16339;48.748;2.222;2024-03-08T08:07:22;10.50;99.90
29345;DHT22;16339;48.748;2.222;2024-03-08T08:09:53;10.50;99.90
29345;DHT22;16339;48.748;2.222;2024-03-08T08:12:35;10.60;99.90
29345;DHT22;16339;48.748;2.222;2024-03-08T08:15:21;10.60;99.90
29345;DHT22;16339;48.748;2.222;2024-03-08T08:18:10;10.60;99.90
29345;DHT22;16339;48.748;2.222;2024-03-08T08:20:51;10.60;99.90
29345;DHT22;16339;48.748;2.222;2024-03-08T08:23:35;10.70;99.90
29345;DHT22;16339;48.748;2.222;2024-03-08T08:26:34;10.70;99.90
29345;DHT22;16339;48.748;2.222;2024-03-08T08:29:21;10.70;99.90
29345;DHT22;16339;48.748;2.222;2024-03-08T08:32:05;10.80;99.90
29345;DHT22;16339;48.748;2.222;2024-03-08T08:34:39;10.80;99.90
29345;DHT22;16339;48.748;2.222;2024-03-08T08:37:48;10.90;99.90
29345;DHT22;16339;48.748;2.222;2024-03-08T08:40:55;10.90;99.90
29345;DHT22;16339;48.748;2.222;2024-03-08T08:56:26;11.10;99.90
29345;DHT22;16339;48.748;2.222;2024-03-08T08:59:37;11.10;99.90
29345;DHT22;16339;48.748;2.222;2024-03-08T09:02:29;11.20;99.90
29345;DHT22;16339;48.748;2.222;2024-03-08T09:08:39;11.20;99.90
29345;DHT22;16339;48.748;2.222;2024-03-08T09:11:29;11.30;99.90
29345;DHT22;16339;48.748;2.222;2024-03-08T09:14:30;11.30;99.90
29345;DHT22;16339;48.748;2.222;2024-03-08T09:17:13;11.30;99.90
29345;DHT22;16339;48.748;2.222;2024-03-08T09:20:05;11.30;99.90
29345;DHT22;16339;48.748;2.222;2024-03-08T09:22:36;11.30;99.90
29345;DHT22;16339;48.748;2.222;2024-03-08T09:28:50;11.40;99.90
29345;DHT22;16339;48.748;2.222;2024-03-08T09:32:05;11.40;99.90
29345;DHT22;16339;48.748;2.222;2024-03-08T09:35:08;11.50;99.90
29345;DHT22;16339;48.748;2.222;2024-03-08T09:41:32;11.60;99.90
29345;DHT22;16339;48.748;2.222;2024-03-08T09:54:28;11.70;99.90
29345;DHT22;16339;48.748;2.222;2024-03-08T09:57:41;11.80;99.90
29345;DHT22;16339;48.748;2.222;2024-03-08T10:00:59;11.70;99.90
29345;DHT22;16339;48.748;2.222;2024-03-08T10:07:21;11.80;99.90
29345;DHT22;16339;48.748;2.222;2024-03-08T10:11:59;11.90;99.90
29345;DHT22;16339;48.748;2.222;2024-03-08T10:14:12;12.00;99.90
29345;DHT22;16339;48.748;2.222;2024-03-08T10:40:30;12.10;99.90
29345;DHT22;16339;48.748;2.222;2024-03-08T10:43:28;12.40;99.90
29345;DHT22;16339;48.748;2.222;2024-03-08T10:46:46;12.40;99.90
29345;DHT22;16339;48.748;2.222;2024-03-08T10:56:23;12.60;99.90
29345;DHT22;16339;48.748;2.222;2024-03-08T10:59:30;12.70;99.90
29345;DHT22;16339;48.748;2.222;2024-03-08T11:02:08;12.70;99.90
29345;DHT22;16339;48.748;2.222;2024-03-08T11:35:46;12.90;99.90
29345;DHT22;16339;48.748;2.222;2024-03-08T11:38:46;13.20;99.90
29345;DHT22;16339;48.748;2.222;2024-03-08T11:41:32;13.30;99.90
29345;DHT22;16339;48.748;2.222;2024-03-08T11:44:30;13.30;99.90
29345;DHT22;16339;48.748;2.222;2024-03-08T11:47:31;13.40;99.90
29345;DHT22;16339;48.748;2.222;2024-03-08T11:51:05;13.40;99.90
29345;DHT22;16339;48.748;2.222;2024-03-08T11:54:10;13.50;99.90
29345;DHT22;16339;48.748;2.222;2024-03-08T11:56:56;13.60;99.90
29345;DHT22;16339;48.748;2.222;2024-03-08T11:59:36;13.60;99.90
29345;DHT22;16339;48.748;2.222;2024-03-08T12:06:17;13.70;99.90
29345;DHT22;16339;48.748;2.222;2024-03-08T12:12:52;13.90;99.90
29345;DHT22;16339;48.748;2.222;2024-03-08T12:19:03;14.10;99.90
29345;DHT22;16339;48.748;2.222;2024-03-08T12:21:35;14.10;99.90
29345;DHT22;16339;48.748;2.222;2024-03-08T12:24:11;14.10;99.90
29345;DHT22;16339;48.748;2.222;2024-03-08T12:26:46;14.20;99.90
29345;DHT22;16339;48.748;2.222;2024-03-08T12:29:16;14.30;99.90
29345;DHT22;16339;48.748;2.222;2024-03-08T12:31:49;14.30;99.90
29345;DHT22;16339;48.748;2.222;2024-03-08T12:34:19;14.30;99.90
29345;DHT22;16339;48.748;2.222;2024-03-08T12:36:51;14.40;99.90
29345;DHT22;16339;48.748;2.222;2024-03-08T12:39:21;14.40;99.90
29345;DHT22;16339;48.748;2.222;2024-03-08T12:41:52;14.40;99.90
29345;DHT22;16339;48.748;2.222;2024-03-08T12:44:24;14.50;99.90
29345;DHT22;16339;48.748;2.222;2024-03-08T12:46:54;14.60;99.90
29345;DHT22;16339;48.748;2.222;2024-03-08T12:49:24;14.60;99.90
29345;DHT22;16339;48.748;2.222;2024-03-08T12:51:55;14.70;99.90
29345;DHT22;16339;48.748;2.222;2024-03-08T12:54:25;14.80;99.90
29345;DHT22;16339;48.748;2.222;2024-03-08T12:56:54;14.90;99.90
29345;DHT22;16339;48.748;2.222;2024-03-08T12:59:24;15.10;99.90
29345;DHT22;16339;48.748;2.222;2024-03-08T13:01:52;15.10;99.90
29345;DHT22;16339;48.748;2.222;2024-03-08T13:04:24;15.20;99.90
29345;DHT22;16339;48.748;2.222;2024-03-08T13:06:55;15.30;99.90
29345;DHT22;16339;48.748;2.222;2024-03-08T13:09:24;15.30;99.90
29345;DHT22;16339;48.748;2.222;2024-03-08T13:11:53;15.40;99.90
29345;DHT22;16339;48.748;2.222;2024-03-08T13:14:24;15.40;99.90
29345;DHT22;16339;48.748;2.222;2024-03-08T13:16:53;15.40;99.90
29345;DHT22;16339;48.748;2.222;2024-03-08T13:19:23;15.40;99.90
29345;DHT22;16339;48.748;2.222;2024-03-08T13:21:58;15.40;99.90
29345;DHT22;16339;48.748;2.222;2024-03-08T13:24:30;15.40;99.90
29345;DHT22;16339;48.748;2.222;2024-03-08T13:26:59;15.40;99.90
29345;DHT22;16339;48.748;2.222;2024-03-08T13:29:28;15.40;99.90
29345;DHT22;16339;48.748;2.222;2024-03-08T13:31:59;15.40;99.90
29345;DHT22;16339;48.748;2.222;2024-03-08T13:34:29;15.40;99.90
29345;DHT22;16339;48.748;2.222;2024-03-08T13:37:03;15.40;99.90
29345;DHT22;16339;48.748;2.222;2024-03-08T13:39:32;15.40;99.90
29345;DHT22;16339;48.748;2.222;2024-03-08T13:42:06;15.40;99.90
29345;DHT22;16339;48.748;2.222;2024-03-08T13:44:39;15.40;99.90
29345;DHT22;16339;48.748;2.222;2024-03-08T13:47:08;15.40;99.90
29345;DHT22;16339;48.748;2.222;2024-03-08T13:49:37;15.40;99.90
29345;DHT22;16339;48.748;2.222;2024-03-08T13:52:09;15.40;99.90
29345;DHT22;16339;48.748;2.222;2024-03-08T13:54:38;15.50;99.90
29345;DHT22;16339;48.748;2.222;2024-03-08T13:57:07;15.50;99.90
29345;DHT22;16339;48.748;2.222;2024-03-08T13:59:35;15.50;99.90
29345;DHT22;16339;48.748;2.222;2024-03-08T14:02:05;15.60;99.90
29345;DHT22;16339;48.748;2.222;2024-03-08T14:04:38;15.60;99.90
29345;DHT22;16339;48.748;2.222;2024-03-08T14:07:10;15.60;99.90
29345;DHT22;16339;48.748;2.222;2024-03-08T14:09:39;15.60;99.90
29345;DHT22;16339;48.748;2.222;2024-03-08T14:12:09;15.60;99.90
29345;DHT22;16339;48.748;2.222;2024-03-08T14:14:38;15.60;99.90
29345;DHT22;16339;48.748;2.222;2024-03-08T14:17:07;15.60;99.90
29345;DHT22;16339;48.748;2.222;2024-03-08T14:19:41;15.60;99.90
29345;DHT22;16339;48.748;2.222;2024-03-08T14:22:12;15.60;99.90
29345;DHT22;16339;48.748;2.222;2024-03-08T14:31:26;15.80;99.90
29345;DHT22;16339;48.748;2.222;2024-03-08T14:33:56;15.80;99.90
29345;DHT22;16339;48.748;2.222;2024-03-08T14:36:25;15.90;99.90
29345;DHT22;16339;48.748;2.222;2024-03-08T14:38:56;15.90;99.90
29345;DHT22;16339;48.748;2.222;2024-03-08T14:41:25;15.90;99.90
29345;DHT22;16339;48.748;2.222;2024-03-08T14:43:55;15.90;99.90
29345;DHT22;16339;48.748;2.222;2024-03-08T14:46:25;15.90;99.90
29345;DHT22;16339;48.748;2.222;2024-03-08T14:48:54;15.90;99.90
29345;DHT22;16339;48.748;2.222;2024-03-08T14:51:25;15.90;99.90
29345;DHT22;16339;48.748;2.222;2024-03-08T14:53:57;15.90;99.90
29345;DHT22;16339;48.748;2.222;2024-03-08T14:56:26;16.00;99.90
29345;DHT22;16339;48.748;2.222;2024-03-08T14:58:54;16.00;99.90
29345;DHT22;16339;48.748;2.222;2024-03-08T15:01:25;16.10;99.90
29345;DHT22;16339;48.748;2.222;2024-03-08T15:03:55;16.20;99.90
29345;DHT22;16339;48.748;2.222;2024-03-08T15:06:28;16.20;99.90
29345;DHT22;16339;48.748;2.222;2024-03-08T15:09:01;16.20;99.90
29345;DHT22;16339;48.748;2.222;2024-03-08T15:11:36;16.20;99.90
29345;DHT22;16339;48.748;2.222;2024-03-08T15:14:05;16.30;99.90
29345;DHT22;16339;48.748;2.222;2024-03-08T15:16:37;16.30;99.90
29345;DHT22;16339;48.748;2.222;2024-03-08T15:19:08;16.30;99.90
29345;DHT22;16339;48.748;2.222;2024-03-08T15:21:37;16.40;99.90
29345;DHT22;16339;48.748;2.222;2024-03-08T15:24:11;16.40;99.90
29345;DHT22;16339;48.748;2.222;2024-03-08T15:26:41;16.50;99.90
29345;DHT22;16339;48.748;2.222;2024-03-08T15:29:11;16.50;99.90
29345;DHT22;16339;48.748;2.222;2024-03-08T15:31:40;16.50;99.90
29345;DHT22;16339;48.748;2.222;2024-03-08T15:34:11;16.50;99.90
29345;DHT22;16339;48.748;2.222;2024-03-08T15:36:42;16.60;99.90
29345;DHT22;16339;48.748;2.222;2024-03-08T15:39:16;16.60;99.90
29345;DHT22;16339;48.748;2.222;2024-03-08T15:41:46;16.50;99.90
29345;DHT22;16339;48.748;2.222;2024-03-08T15:44:15;16.50;99.90
29345;DHT22;16339;48.748;2.222;2024-03-08T15:46:44;16.50;99.90
29345;DHT22;16339;48.748;2.222;2024-03-08T15:49:13;16.50;99.90
29345;DHT22;16339;48.748;2.222;2024-03-08T15:51:42;16.50;99.90
29345;DHT22;16339;48.748;2.222;2024-03-08T15:54:10;16.50;99.80
29345;DHT22;16339;48.748;2.222;2024-03-08T15:56:42;16.50;99.90
29345;DHT22;16339;48.748;2.222;2024-03-08T15:59:30;16.50;99.90
29345;DHT22;16339;48.748;2.222;2024-03-08T16:02:03;16.60;99.90
29345;DHT22;16339;48.748;2.222;2024-03-08T16:04:31;16.50;99.50
29345;DHT22;16339;48.748;2.222;2024-03-08T16:07:00;16.50;99.30
29345;DHT22;16339;48.748;2.222;2024-03-08T16:09:29;16.50;99.50
29345;DHT22;16339;48.748;2.222;2024-03-08T16:12:01;16.40;99.50
29345;DHT22;16339;48.748;2.222;2024-03-08T16:14:30;16.30;99.40
29345;DHT22;16339;48.748;2.222;2024-03-08T16:17:00;16.30;99.50
29345;DHT22;16339;48.748;2.222;2024-03-08T16:19:29;16.10;99.50
29345;DHT22;16339;48.748;2.222;2024-03-08T16:21:58;16.00;99.70
29345;DHT22;16339;48.748;2.222;2024-03-08T16:24:27;16.00;99.90
29345;DHT22;16339;48.748;2.222;2024-03-08T16:27:02;15.80;99.90
29345;DHT22;16339;48.748;2.222;2024-03-08T16:29:31;15.80;99.90
29345;DHT22;16339;48.748;2.222;2024-03-08T16:31:59;15.60;99.90
29345;DHT22;16339;48.748;2.222;2024-03-08T16:34:40;15.60;99.90
29345;DHT22;16339;48.748;2.222;2024-03-08T16:37:09;15.50;99.90
29345;DHT22;16339;48.748;2.222;2024-03-08T16:39:38;15.50;99.90
29345;DHT22;16339;48.748;2.222;2024-03-08T16:42:22;15.40;99.90
29345;DHT22;16339;48.748;2.222;2024-03-08T16:44:51;15.40;99.90
29345;DHT22;16339;48.748;2.222;2024-03-08T16:47:20;15.40;99.90
29345;DHT22;16339;48.748;2.222;2024-03-08T16:49:50;15.30;99.90
29345;DHT22;16339;48.748;2.222;2024-03-08T16:52:18;15.30;99.90
29345;DHT22;16339;48.748;2.222;2024-03-08T16:54:48;15.30;99.90
29345;DHT22;16339;48.748;2.222;2024-03-08T16:57:19;15.30;99.90
29345;DHT22;16339;48.748;2.222;2024-03-08T16:59:51;15.30;99.90
29345;DHT22;16339;48.748;2.222;2024-03-08T17:02:20;15.20;99.90
29345;DHT22;16339;48.748;2.222;2024-03-08T17:04:48;15.20;99.90
29345;DHT22;16339;48.748;2.222;2024-03-08T17:07:18;15.20;99.90
29345;DHT22;16339;48.748;2.222;2024-03-08T17:09:48;15.20;99.90
29345;DHT22;16339;48.748;2.222;2024-03-08T17:12:19;15.10;99.90
29345;DHT22;16339;48.748;2.222;2024-03-08T17:14:49;15.20;99.90
29345;DHT22;16339;48.748;2.222;2024-03-08T17:17:18;15.10;99.90
29345;DHT22;16339;48.748;2.222;2024-03-08T17:19:48;15.10;99.90
29345;DHT22;16339;48.748;2.222;2024-03-08T17:22:17;15.10;99.90
29345;DHT22;16339;48.748;2.222;2024-03-08T17:24:46;15.10;99.90
29345;DHT22;16339;48.748;2.222;2024-03-08T17:27:18;15.10;99.90
29345;DHT22;16339;48.748;2.222;2024-03-08T17:29:50;15.10;99.90
29345;DHT22;16339;48.748;2.222;2024-03-08T17:32:20;15.00;99.90
29345;DHT22;16339;48.748;2.222;2024-03-08T17:34:49;15.00;99.90
29345;DHT22;16339;48.748;2.222;2024-03-08T17:37:18;15.00;99.90
29345;DHT22;16339;48.748;2.222;2024-03-08T17:39:46;15.00;99.90
29345;DHT22;16339;48.748;2.222;2024-03-08T17:42:16;15.00;99.90
29345;DHT22;16339;48.748;2.222;2024-03-08T17:44:47;14.90;99.90
29345;DHT22;16339;48.748;2.222;2024-03-08T17:47:15;14.90;99.90
29345;DHT22;16339;48.748;2.222;2024-03-08T17:49:45;14.90;99.90
29345;DHT22;16339;48.748;2.222;2024-03-08T17:52:16;14.80;99.90
29345;DHT22;16339;48.748;2.222;2024-03-08T17:54:49;14.80;99.90
29345;DHT22;16339;48.748;2.222;2024-03-08T17:57:18;14.80;99.90
29345;DHT22;16339;48.748;2.222;2024-03-08T17:59:51;14.70;99.90
29345;DHT22;16339;48.748;2.222;2024-03-08T18:02:20;14.70;99.90
29345;DHT22;16339;48.748;2.222;2024-03-08T18:04:49;14.80;99.90
29345;DHT22;16339;48.748;2.222;2024-03-08T18:07:18;14.70;99.90